sensor_id;sensor_type;location;lat;lon;timestamp;P1;durP1;ratioP1;P2;durP2;ratioP2
56517;SDS011;42419;48.760;2.322;2023-02-01T00:01:11;3.73;;;3.17;;
56517;SDS011;42419;48.760;2.322;2023-02-01T00:03:36;5.50;;;2.90;;
56517;SDS011;42419;48.760;2.322;2023-02-01T00:06:02;5.20;;;3.10;;
56517;SDS011;42419;48.760;2.322;2023-02-01T00:08:28;4.47;;;3.13;;
56517;SDS011;42419;48.760;2.322;2023-02-01T00:13:31;3.37;;;3.07;;
56517;SDS011;42419;48.760;2.322;2023-02-01T00:16:04;4.30;;;3.30;;
56517;SDS011;42419;48.760;2.322;2023-02-01T00:18:29;4.47;;;3.23;;
56517;SDS011;42419;48.760;2.322;2023-02-01T00:20:55;5.30;;;2.83;;
56517;SDS011;42419;48.760;2.322;2023-02-01T00:23:20;3.90;;;2.80;;
56517;SDS011;42419;48.760;2.322;2023-02-01T00:25:45;3.17;;;2.73;;
56517;SDS011;42419;48.760;2.322;2023-02-01T00:28:10;3.60;;;2.93;;
56517;SDS011;42419;48.760;2.322;2023-02-01T00:30:37;4.83;;;3.40;;
56517;SDS011;42419;48.760;2.322;2023-02-01T00:33:03;5.57;;;3.40;;
56517;SDS011;42419;48.760;2.322;2023-02-01T00:35:28;5.30;;;3.23;;
56517;SDS011;42419;48.760;2.322;2023-02-01T00:37:54;5.33;;;3.17;;
56517;SDS011;42419;48.760;2.322;2023-02-01T00:40:19;3.43;;;2.90;;
56517;SDS011;42419;48.760;2.322;2023-02-01T00:42:44;3.93;;;2.57;;
56517;SDS011;42419;48.760;2.322;2023-02-01T00:45:10;5.00;;;2.93;;
56517;SDS011;42419;48.760;2.322;2023-02-01T00:47:35;3.57;;;2.83;;
56517;SDS011;42419;48.760;2.322;2023-02-01T00:50:00;5.63;;;3.10;;
56517;SDS011;42419;48.760;2.322;2023-02-01T00:52:26;4.77;;;3.30;;
56517;SDS011;42419;48.760;2.322;2023-02-01T00:54:51;3.23;;;2.80;;
56517;SDS011;42419;48.760;2.322;2023-02-01T00:57:16;3.70;;;2.30;;
56517;SDS011;42419;48.760;2.322;2023-02-01T00:59:42;3.43;;;2.67;;
56517;SDS011;42419;48.760;2.322;2023-02-01T01:02:07;2.77;;;2.50;;
56517;SDS011;42419;48.760;2.322;2023-02-01T01:04:32;3.00;;;2.53;;
56517;SDS011;42419;48.760;2.322;2023-02-01T01:06:58;3.90;;;2.83;;
56517;SDS011;42419;48.760;2.322;2023-02-01T01:09:23;5.77;;;3.20;;
56517;SDS011;42419;48.760;2.322;2023-02-01T01:11:48;5.33;;;3.50;;
56517;SDS011;42419;48.760;2.322;2023-02-01T01:14:16;5.00;;;2.90;;
56517;SDS011;42419;48.760;2.322;2023-02-01T01:16:41;3.90;;;2.63;;
56517;SDS011;42419;48.760;2.322;2023-02-01T01:19:06;6.90;;;3.23;;
56517;SDS011;42419;48.760;2.322;2023-02-01T01:21:32;3.60;;;2.77;;
56517;SDS011;42419;48.760;2.322;2023-02-01T01:23:58;6.33;;;3.40;;
56517;SDS011;42419;48.760;2.322;2023-02-01T01:26:24;2.77;;;2.47;;
56517;SDS011;42419;48.760;2.322;2023-02-01T01:28:51;3.50;;;2.63;;
56517;SDS011;42419;48.760;2.322;2023-02-01T01:31:18;7.07;;;2.77;;
56517;SDS011;42419;48.760;2.322;2023-02-01T01:33:47;3.43;;;2.70;;
56517;SDS011;42419;48.760;2.322;2023-02-01T01:36:14;2.90;;;2.60;;
56517;SDS011;42419;48.760;2.322;2023-02-01T01:38:39;3.63;;;2.90;;
56517;SDS011;42419;48.760;2.322;2023-02-01T01:41:05;2.87;;;2.50;;
56517;SDS011;42419;48.760;2.322;2023-02-01T01:43:45;4.10;;;2.30;;
56517;SDS011;42419;48.760;2.322;2023-02-01T01:46:17;3.73;;;2.37;;
56517;SDS011;42419;48.760;2.322;2023-02-01T01:48:44;3.93;;;2.70;;
56517;SDS011;42419;48.760;2.322;2023-02-01T01:51:12;3.00;;;2.47;;
56517;SDS011;42419;48.760;2.322;2023-02-01T01:53:43;3.20;;;2.57;;
56517;SDS011;42419;48.760;2.322;2023-02-01T01:56:12;2.90;;;2.60;;
56517;SDS011;42419;48.760;2.322;2023-02-01T01:58:39;3.50;;;2.53;;
56517;SDS011;42419;48.760;2.322;2023-02-01T02:01:05;2.73;;;2.40;;
56517;SDS011;42419;48.760;2.322;2023-02-01T02:03:52;3.73;;;2.60;;
56517;SDS011;42419;48.760;2.322;2023-02-01T02:06:20;3.57;;;2.53;;
56517;SDS011;42419;48.760;2.322;2023-02-01T02:08:58;4.07;;;2.57;;
56517;SDS011;42419;48.760;2.322;2023-02-01T02:11:23;2.70;;;2.50;;
56517;SDS011;42419;48.760;2.322;2023-02-01T02:13:49;4.27;;;2.80;;
56517;SDS011;42419;48.760;2.322;2023-02-01T02:16:24;3.53;;;2.77;;
56517;SDS011;42419;48.760;2.322;2023-02-01T02:44:35;4.20;;;2.63;;
56517;SDS011;42419;48.760;2.322;2023-02-01T02:47:47;3.20;;;2.37;;
56517;SDS011;42419;48.760;2.322;2023-02-01T02:50:29;3.93;;;2.10;;
56517;SDS011;42419;48.760;2.322;2023-02-01T02:53:23;3.47;;;2.40;;
56517;SDS011;42419;48.760;2.322;2023-02-01T02:56:12;3.97;;;2.80;;
56517;SDS011;42419;48.760;2.322;2023-02-01T02:58:58;3.30;;;2.43;;
56517;SDS011;42419;48.760;2.322;2023-02-01T03:01:42;4.10;;;2.30;;
56517;SDS011;42419;48.760;2.322;2023-02-01T03:04:27;3.60;;;2.20;;
56517;SDS011;42419;48.760;2.322;2023-02-01T03:06:53;2.60;;;2.33;;
56517;SDS011;42419;48.760;2.322;2023-02-01T03:09:32;2.90;;;2.37;;
56517;SDS011;42419;48.760;2.322;2023-02-01T03:12:03;3.80;;;2.07;;
56517;SDS011;42419;48.760;2.322;2023-02-01T03:15:05;4.43;;;2.73;;
56517;SDS011;42419;48.760;2.322;2023-02-01T03:17:35;3.50;;;2.40;;
56517;SDS011;42419;48.760;2.322;2023-02-01T03:20:06;3.30;;;2.50;;
56517;SDS011;42419;48.760;2.322;2023-02-01T03:22:34;3.37;;;2.27;;
56517;SDS011;42419;48.760;2.322;2023-02-01T03:25:05;2.50;;;2.30;;
56517;SDS011;42419;48.760;2.322;2023-02-01T03:27:37;4.50;;;2.40;;
56517;SDS011;42419;48.760;2.322;2023-02-01T03:30:10;3.30;;;2.53;;
56517;SDS011;42419;48.760;2.322;2023-02-01T03:32:46;3.50;;;2.27;;
56517;SDS011;42419;48.760;2.322;2023-02-01T03:40:38;3.70;;;2.40;;
56517;SDS011;42419;48.760;2.322;2023-02-01T03:43:06;2.90;;;2.17;;
56517;SDS011;42419;48.760;2.322;2023-02-01T03:45:38;3.20;;;2.30;;
56517;SDS011;42419;48.760;2.322;2023-02-01T03:48:08;2.50;;;2.27;;
56517;SDS011;42419;48.760;2.322;2023-02-01T03:50:38;3.10;;;2.30;;
56517;SDS011;42419;48.760;2.322;2023-02-01T03:53:09;2.43;;;2.23;;
56517;SDS011;42419;48.760;2.322;2023-02-01T03:55:39;3.53;;;2.87;;
56517;SDS011;42419;48.760;2.322;2023-02-01T03:58:14;4.20;;;2.43;;
56517;SDS011;42419;48.760;2.322;2023-02-01T04:00:46;3.07;;;2.40;;
56517;SDS011;42419;48.760;2.322;2023-02-01T04:03:24;2.30;;;2.07;;
56517;SDS011;42419;48.760;2.322;2023-02-01T04:05:51;3.27;;;2.43;;
56517;SDS011;42419;48.760;2.322;2023-02-01T04:08:18;4.40;;;2.10;;
56517;SDS011;42419;48.760;2.322;2023-02-01T04:10:44;3.73;;;2.60;;
56517;SDS011;42419;48.760;2.322;2023-02-01T04:13:10;3.73;;;2.30;;
56517;SDS011;42419;48.760;2.322;2023-02-01T04:15:36;4.93;;;2.80;;
56517;SDS011;42419;48.760;2.322;2023-02-01T04:18:01;3.77;;;2.77;;
56517;SDS011;42419;48.760;2.322;2023-02-01T04:20:27;3.23;;;2.53;;
56517;SDS011;42419;48.760;2.322;2023-02-01T04:22:52;2.33;;;2.13;;
56517;SDS011;42419;48.760;2.322;2023-02-01T04:25:18;6.43;;;2.90;;
56517;SDS011;42419;48.760;2.322;2023-02-01T04:27:43;3.10;;;2.50;;
56517;SDS011;42419;48.760;2.322;2023-02-01T04:30:09;4.67;;;2.57;;
56517;SDS011;42419;48.760;2.322;2023-02-01T04:32:36;4.37;;;2.53;;
56517;SDS011;42419;48.760;2.322;2023-02-01T04:35:02;4.40;;;2.70;;
56517;SDS011;42419;48.760;2.322;2023-02-01T04:37:27;4.77;;;2.60;;
56517;SDS011;42419;48.760;2.322;2023-02-01T04:39:53;3.00;;;2.20;;
56517;SDS011;42419;48.760;2.322;2023-02-01T04:42:19;4.27;;;2.00;;
56517;SDS011;42419;48.760;2.322;2023-02-01T04:44:44;2.67;;;2.17;;
56517;SDS011;42419;48.760;2.322;2023-02-01T04:47:09;3.50;;;2.20;;
56517;SDS011;42419;48.760;2.322;2023-02-01T04:49:35;4.13;;;2.67;;
56517;SDS011;42419;48.760;2.322;2023-02-01T04:52:00;5.80;;;2.63;;
56517;SDS011;42419;48.760;2.322;2023-02-01T04:54:25;4.10;;;2.00;;
56517;SDS011;42419;48.760;2.322;2023-02-01T04:56:53;4.20;;;2.87;;
56517;SDS011;42419;48.760;2.322;2023-02-01T04:59:19;3.77;;;2.60;;
56517;SDS011;42419;48.760;2.322;2023-02-01T05:01:44;3.40;;;2.50;;
56517;SDS011;42419;48.760;2.322;2023-02-01T05:04:09;3.90;;;2.90;;
56517;SDS011;42419;48.760;2.322;2023-02-01T05:06:35;4.03;;;2.77;;
56517;SDS011;42419;48.760;2.322;2023-02-01T05:09:00;4.20;;;2.63;;
56517;SDS011;42419;48.760;2.322;2023-02-01T05:11:25;4.20;;;2.30;;
56517;SDS011;42419;48.760;2.322;2023-02-01T05:14:09;4.60;;;2.40;;
56517;SDS011;42419;48.760;2.322;2023-02-01T05:16:34;3.50;;;2.30;;
56517;SDS011;42419;48.760;2.322;2023-02-01T05:19:00;3.70;;;2.63;;
56517;SDS011;42419;48.760;2.322;2023-02-01T05:21:25;4.03;;;2.57;;
56517;SDS011;42419;48.760;2.322;2023-02-01T05:23:51;3.87;;;2.57;;
56517;SDS011;42419;48.760;2.322;2023-02-01T05:26:34;3.13;;;2.43;;
56517;SDS011;42419;48.760;2.322;2023-02-01T05:29:00;4.07;;;2.20;;
56517;SDS011;42419;48.760;2.322;2023-02-01T05:31:25;4.03;;;2.90;;
56517;SDS011;42419;48.760;2.322;2023-02-01T05:33:50;3.67;;;2.60;;
56517;SDS011;42419;48.760;2.322;2023-02-01T05:36:16;4.30;;;2.90;;
56517;SDS011;42419;48.760;2.322;2023-02-01T05:38:41;3.70;;;2.10;;
56517;SDS011;42419;48.760;2.322;2023-02-01T05:41:07;2.80;;;2.50;;
56517;SDS011;42419;48.760;2.322;2023-02-01T05:43:32;5.33;;;3.07;;
56517;SDS011;42419;48.760;2.322;2023-02-01T05:45:58;4.10;;;2.90;;
56517;SDS011;42419;48.760;2.322;2023-02-01T05:48:23;4.33;;;2.30;;
56517;SDS011;42419;48.760;2.322;2023-02-01T05:50:49;4.07;;;2.77;;
56517;SDS011;42419;48.760;2.322;2023-02-01T05:53:14;3.50;;;2.50;;
56517;SDS011;42419;48.760;2.322;2023-02-01T05:55:39;2.80;;;2.03;;
56517;SDS011;42419;48.760;2.322;2023-02-01T05:58:07;3.67;;;2.40;;
56517;SDS011;42419;48.760;2.322;2023-02-01T06:00:32;3.23;;;2.40;;
56517;SDS011;42419;48.760;2.322;2023-02-01T06:02:57;2.63;;;2.43;;
56517;SDS011;42419;48.760;2.322;2023-02-01T06:05:23;3.67;;;2.60;;
56517;SDS011;42419;48.760;2.322;2023-02-01T06:07:48;3.10;;;1.97;;
56517;SDS011;42419;48.760;2.322;2023-02-01T06:10:15;5.50;;;3.00;;
56517;SDS011;42419;48.760;2.322;2023-02-01T06:12:41;3.67;;;2.17;;
56517;SDS011;42419;48.760;2.322;2023-02-01T06:15:06;3.50;;;3.03;;
56517;SDS011;42419;48.760;2.322;2023-02-01T06:17:32;5.40;;;2.97;;
56517;SDS011;42419;48.760;2.322;2023-02-01T06:19:58;3.30;;;2.23;;
56517;SDS011;42419;48.760;2.322;2023-02-01T06:22:23;4.17;;;2.50;;
56517;SDS011;42419;48.760;2.322;2023-02-01T06:24:48;4.77;;;2.60;;
56517;SDS011;42419;48.760;2.322;2023-02-01T06:27:14;3.27;;;2.40;;
56517;SDS011;42419;48.760;2.322;2023-02-01T06:29:40;5.70;;;2.90;;
56517;SDS011;42419;48.760;2.322;2023-02-01T06:32:05;3.70;;;2.77;;
56517;SDS011;42419;48.760;2.322;2023-02-01T06:34:31;5.60;;;3.53;;
56517;SDS011;42419;48.760;2.322;2023-02-01T06:36:56;3.03;;;2.03;;
56517;SDS011;42419;48.760;2.322;2023-02-01T06:39:21;5.10;;;2.57;;
56517;SDS011;42419;48.760;2.322;2023-02-01T06:41:47;4.03;;;2.23;;
56517;SDS011;42419;48.760;2.322;2023-02-01T06:44:13;4.50;;;2.60;;
56517;SDS011;42419;48.760;2.322;2023-02-01T06:46:38;5.40;;;3.30;;
56517;SDS011;42419;48.760;2.322;2023-02-01T06:49:04;3.30;;;2.57;;
56517;SDS011;42419;48.760;2.322;2023-02-01T06:51:29;6.10;;;2.77;;
56517;SDS011;42419;48.760;2.322;2023-02-01T06:53:55;5.17;;;2.80;;
56517;SDS011;42419;48.760;2.322;2023-02-01T06:56:20;4.77;;;2.23;;
56517;SDS011;42419;48.760;2.322;2023-02-01T06:58:46;5.60;;;2.80;;
56517;SDS011;42419;48.760;2.322;2023-02-01T07:01:12;5.37;;;2.93;;
56517;SDS011;42419;48.760;2.322;2023-02-01T07:03:38;4.27;;;2.93;;
56517;SDS011;42419;48.760;2.322;2023-02-01T07:06:04;4.00;;;2.70;;
56517;SDS011;42419;48.760;2.322;2023-02-01T07:08:31;4.13;;;2.67;;
56517;SDS011;42419;48.760;2.322;2023-02-01T07:11:02;4.33;;;2.80;;
56517;SDS011;42419;48.760;2.322;2023-02-01T07:13:28;3.83;;;2.63;;
56517;SDS011;42419;48.760;2.322;2023-02-01T07:15:54;4.00;;;2.57;;
56517;SDS011;42419;48.760;2.322;2023-02-01T07:18:22;3.40;;;2.43;;
56517;SDS011;42419;48.760;2.322;2023-02-01T07:20:51;4.90;;;2.50;;
56517;SDS011;42419;48.760;2.322;2023-02-01T07:23:16;4.97;;;3.13;;
56517;SDS011;42419;48.760;2.322;2023-02-01T07:25:41;4.70;;;2.77;;
56517;SDS011;42419;48.760;2.322;2023-02-01T07:28:07;5.10;;;2.50;;
56517;SDS011;42419;48.760;2.322;2023-02-01T07:30:32;3.87;;;2.57;;
56517;SDS011;42419;48.760;2.322;2023-02-01T07:32:58;4.97;;;3.00;;
56517;SDS011;42419;48.760;2.322;2023-02-01T07:35:26;4.40;;;2.30;;
56517;SDS011;42419;48.760;2.322;2023-02-01T07:37:52;3.50;;;2.57;;
56517;SDS011;42419;48.760;2.322;2023-02-01T07:40:17;6.87;;;2.83;;
56517;SDS011;42419;48.760;2.322;2023-02-01T07:42:43;3.20;;;2.53;;
56517;SDS011;42419;48.760;2.322;2023-02-01T07:45:08;5.73;;;2.73;;
56517;SDS011;42419;48.760;2.322;2023-02-01T07:47:34;7.30;;;2.57;;
56517;SDS011;42419;48.760;2.322;2023-02-01T07:49:59;5.07;;;2.87;;
56517;SDS011;42419;48.760;2.322;2023-02-01T07:52:27;5.07;;;2.73;;
56517;SDS011;42419;48.760;2.322;2023-02-01T07:54:54;6.03;;;3.20;;
56517;SDS011;42419;48.760;2.322;2023-02-01T07:57:19;4.20;;;2.50;;
56517;SDS011;42419;48.760;2.322;2023-02-01T07:59:44;7.40;;;3.07;;
56517;SDS011;42419;48.760;2.322;2023-02-01T08:02:28;4.73;;;2.60;;
56517;SDS011;42419;48.760;2.322;2023-02-01T08:04:54;4.40;;;2.47;;
56517;SDS011;42419;48.760;2.322;2023-02-01T08:07:19;5.77;;;3.00;;
56517;SDS011;42419;48.760;2.322;2023-02-01T08:09:44;4.60;;;3.00;;
56517;SDS011;42419;48.760;2.322;2023-02-01T08:12:10;5.77;;;3.37;;
56517;SDS011;42419;48.760;2.322;2023-02-01T08:14:35;5.00;;;2.60;;
56517;SDS011;42419;48.760;2.322;2023-02-01T08:17:00;5.00;;;2.93;;
56517;SDS011;42419;48.760;2.322;2023-02-01T08:19:26;4.10;;;2.73;;
56517;SDS011;42419;48.760;2.322;2023-02-01T08:21:51;4.37;;;3.07;;
56517;SDS011;42419;48.760;2.322;2023-02-01T08:24:16;3.90;;;2.47;;
56517;SDS011;42419;48.760;2.322;2023-02-01T08:26:41;2.93;;;2.10;;
56517;SDS011;42419;48.760;2.322;2023-02-01T08:29:07;5.23;;;2.70;;
56517;SDS011;42419;48.760;2.322;2023-02-01T08:31:35;7.00;;;3.20;;
56517;SDS011;42419;48.760;2.322;2023-02-01T08:34:01;7.13;;;3.07;;
56517;SDS011;42419;48.760;2.322;2023-02-01T08:36:29;5.73;;;3.10;;
56517;SDS011;42419;48.760;2.322;2023-02-01T08:38:55;5.87;;;2.80;;
56517;SDS011;42419;48.760;2.322;2023-02-01T08:41:23;4.97;;;3.30;;
56517;SDS011;42419;48.760;2.322;2023-02-01T08:43:50;2.67;;;2.20;;
56517;SDS011;42419;48.760;2.322;2023-02-01T08:46:16;5.47;;;3.20;;
56517;SDS011;42419;48.760;2.322;2023-02-01T08:48:42;6.30;;;3.07;;
56517;SDS011;42419;48.760;2.322;2023-02-01T08:51:08;4.60;;;2.80;;
56517;SDS011;42419;48.760;2.322;2023-02-01T08:53:35;4.30;;;2.80;;
56517;SDS011;42419;48.760;2.322;2023-02-01T08:56:02;4.40;;;2.80;;
56517;SDS011;42419;48.760;2.322;2023-02-01T08:58:28;4.57;;;2.47;;
56517;SDS011;42419;48.760;2.322;2023-02-01T09:00:54;3.53;;;2.43;;
56517;SDS011;42419;48.760;2.322;2023-02-01T09:03:20;7.30;;;3.40;;
56517;SDS011;42419;48.760;2.322;2023-02-01T09:05:45;5.37;;;3.20;;
56517;SDS011;42419;48.760;2.322;2023-02-01T09:08:11;2.77;;;2.40;;
56517;SDS011;42419;48.760;2.322;2023-02-01T09:10:39;5.93;;;2.90;;
56517;SDS011;42419;48.760;2.322;2023-02-01T09:13:06;7.67;;;2.90;;
56517;SDS011;42419;48.760;2.322;2023-02-01T09:15:32;9.00;;;3.90;;
56517;SDS011;42419;48.760;2.322;2023-02-01T09:17:58;6.87;;;3.40;;
56517;SDS011;42419;48.760;2.322;2023-02-01T09:20:23;11.33;;;4.30;;
56517;SDS011;42419;48.760;2.322;2023-02-01T09:22:49;11.50;;;3.77;;
56517;SDS011;42419;48.760;2.322;2023-02-01T09:25:16;11.13;;;4.30;;
56517;SDS011;42419;48.760;2.322;2023-02-01T09:27:41;6.83;;;4.00;;
56517;SDS011;42419;48.760;2.322;2023-02-01T09:30:07;8.57;;;4.10;;
56517;SDS011;42419;48.760;2.322;2023-02-01T09:32:33;8.77;;;4.23;;
56517;SDS011;42419;48.760;2.322;2023-02-01T09:34:58;8.40;;;4.10;;
56517;SDS011;42419;48.760;2.322;2023-02-01T09:37:24;11.20;;;4.70;;
56517;SDS011;42419;48.760;2.322;2023-02-01T09:39:49;7.73;;;3.60;;
56517;SDS011;42419;48.760;2.322;2023-02-01T09:42:16;10.80;;;4.23;;
56517;SDS011;42419;48.760;2.322;2023-02-01T09:47:35;8.87;;;4.73;;
56517;SDS011;42419;48.760;2.322;2023-02-01T09:50:15;10.47;;;4.30;;
56517;SDS011;42419;48.760;2.322;2023-02-01T09:52:59;7.33;;;4.00;;
56517;SDS011;42419;48.760;2.322;2023-02-01T10:00:42;6.83;;;3.27;;
56517;SDS011;42419;48.760;2.322;2023-02-01T10:03:15;10.50;;;4.23;;
56517;SDS011;42419;48.760;2.322;2023-02-01T10:09:08;7.03;;;3.80;;
56517;SDS011;42419;48.760;2.322;2023-02-01T10:20:11;6.90;;;3.80;;
56517;SDS011;42419;48.760;2.322;2023-02-01T10:22:41;5.93;;;3.53;;
56517;SDS011;42419;48.760;2.322;2023-02-01T10:25:26;10.03;;;3.93;;
56517;SDS011;42419;48.760;2.322;2023-02-01T10:27:55;6.43;;;3.13;;
56517;SDS011;42419;48.760;2.322;2023-02-01T10:30:23;10.00;;;4.03;;
56517;SDS011;42419;48.760;2.322;2023-02-01T10:32:52;8.93;;;4.00;;
56517;SDS011;42419;48.760;2.322;2023-02-01T10:35:25;7.37;;;4.10;;
56517;SDS011;42419;48.760;2.322;2023-02-01T10:37:54;7.40;;;4.17;;
56517;SDS011;42419;48.760;2.322;2023-02-01T10:40:21;6.40;;;3.60;;
56517;SDS011;42419;48.760;2.322;2023-02-01T10:42:49;6.20;;;3.23;;
56517;SDS011;42419;48.760;2.322;2023-02-01T10:45:21;8.03;;;3.50;;
56517;SDS011;42419;48.760;2.322;2023-02-01T10:47:50;5.73;;;3.10;;
56517;SDS011;42419;48.760;2.322;2023-02-01T10:58:25;4.70;;;2.90;;
56517;SDS011;42419;48.760;2.322;2023-02-01T11:06:08;5.10;;;3.50;;
56517;SDS011;42419;48.760;2.322;2023-02-01T11:11:30;8.03;;;3.40;;
56517;SDS011;42419;48.760;2.322;2023-02-01T11:16:33;5.97;;;3.50;;
56517;SDS011;42419;48.760;2.322;2023-02-01T11:19:01;4.93;;;3.67;;
56517;SDS011;42419;48.760;2.322;2023-02-01T11:21:26;6.40;;;3.30;;
56517;SDS011;42419;48.760;2.322;2023-02-01T11:23:52;6.07;;;3.17;;
56517;SDS011;42419;48.760;2.322;2023-02-01T11:29:05;5.13;;;3.03;;
56517;SDS011;42419;48.760;2.322;2023-02-01T11:31:37;5.97;;;3.60;;
56517;SDS011;42419;48.760;2.322;2023-02-01T11:34:06;4.67;;;3.10;;
56517;SDS011;42419;48.760;2.322;2023-02-01T11:36:36;5.50;;;3.10;;
56517;SDS011;42419;48.760;2.322;2023-02-01T11:39:19;7.43;;;3.43;;
56517;SDS011;42419;48.760;2.322;2023-02-01T11:44:29;4.97;;;3.33;;
56517;SDS011;42419;48.760;2.322;2023-02-01T11:47:16;5.10;;;3.67;;
56517;SDS011;42419;48.760;2.322;2023-02-01T11:49:58;5.47;;;2.90;;
56517;SDS011;42419;48.760;2.322;2023-02-01T11:58:09;6.43;;;3.20;;
56517;SDS011;42419;48.760;2.322;2023-02-01T12:00:44;6.00;;;3.53;;
56517;SDS011;42419;48.760;2.322;2023-02-01T12:08:48;5.10;;;3.40;;
56517;SDS011;42419;48.760;2.322;2023-02-01T12:14:03;4.10;;;2.90;;
56517;SDS011;42419;48.760;2.322;2023-02-01T12:20:06;6.73;;;3.10;;
56517;SDS011;42419;48.760;2.322;2023-02-01T12:28:31;5.17;;;2.87;;
56517;SDS011;42419;48.760;2.322;2023-02-01T12:33:56;3.57;;;2.90;;
56517;SDS011;42419;48.760;2.322;2023-02-01T12:39:25;8.20;;;3.33;;
56517;SDS011;42419;48.760;2.322;2023-02-01T12:45:19;6.87;;;4.23;;
56517;SDS011;42419;48.760;2.322;2023-02-01T12:50:48;6.37;;;3.60;;
56517;SDS011;42419;48.760;2.322;2023-02-01T12:56:20;9.00;;;4.77;;
56517;SDS011;42419;48.760;2.322;2023-02-01T12:58:53;9.10;;;4.30;;
56517;SDS011;42419;48.760;2.322;2023-02-01T13:01:22;10.37;;;5.50;;
56517;SDS011;42419;48.760;2.322;2023-02-01T13:03:55;7.30;;;4.40;;
56517;SDS011;42419;48.760;2.322;2023-02-01T13:06:35;7.77;;;4.77;;
56517;SDS011;42419;48.760;2.322;2023-02-01T13:12:03;7.03;;;4.60;;
56517;SDS011;42419;48.760;2.322;2023-02-01T13:17:16;8.77;;;5.03;;
56517;SDS011;42419;48.760;2.322;2023-02-01T13:23:01;12.60;;;5.73;;
56517;SDS011;42419;48.760;2.322;2023-02-01T13:25:49;12.10;;;6.37;;
56517;SDS011;42419;48.760;2.322;2023-02-01T13:36:24;11.40;;;6.20;;
56517;SDS011;42419;48.760;2.322;2023-02-01T13:42:19;9.47;;;6.43;;
56517;SDS011;42419;48.760;2.322;2023-02-01T13:44:38;12.73;;;5.93;;
56517;SDS011;42419;48.760;2.322;2023-02-01T13:47:21;9.93;;;6.20;;
56517;SDS011;42419;48.760;2.322;2023-02-01T13:49:48;11.80;;;6.80;;
56517;SDS011;42419;48.760;2.322;2023-02-01T13:52:27;9.53;;;6.27;;
56517;SDS011;42419;48.760;2.322;2023-02-01T13:55:01;8.90;;;5.70;;
56517;SDS011;42419;48.760;2.322;2023-02-01T13:57:52;8.77;;;6.07;;
56517;SDS011;42419;48.760;2.322;2023-02-01T14:00:28;9.40;;;6.43;;
56517;SDS011;42419;48.760;2.322;2023-02-01T14:13:33;12.57;;;6.17;;
56517;SDS011;42419;48.760;2.322;2023-02-01T14:31:43;10.10;;;5.80;;
56517;SDS011;42419;48.760;2.322;2023-02-01T14:37:33;10.20;;;5.87;;
56517;SDS011;42419;48.760;2.322;2023-02-01T14:39:59;9.30;;;5.53;;
56517;SDS011;42419;48.760;2.322;2023-02-01T14:47:44;6.37;;;4.57;;
56517;SDS011;42419;48.760;2.322;2023-02-01T14:58:44;7.37;;;5.03;;
56517;SDS011;42419;48.760;2.322;2023-02-01T15:01:22;8.70;;;4.13;;
56517;SDS011;42419;48.760;2.322;2023-02-01T15:04:05;10.53;;;5.07;;
56517;SDS011;42419;48.760;2.322;2023-02-01T15:06:41;9.37;;;5.63;;
56517;SDS011;42419;48.760;2.322;2023-02-01T15:09:29;8.67;;;4.50;;
56517;SDS011;42419;48.760;2.322;2023-02-01T15:12:04;9.03;;;4.70;;
56517;SDS011;42419;48.760;2.322;2023-02-01T15:14:44;8.10;;;5.07;;
56517;SDS011;42419;48.760;2.322;2023-02-01T15:17:21;7.73;;;4.23;;
56517;SDS011;42419;48.760;2.322;2023-02-01T15:20:32;7.77;;;4.50;;
56517;SDS011;42419;48.760;2.322;2023-02-01T15:22:51;8.23;;;4.20;;
56517;SDS011;42419;48.760;2.322;2023-02-01T15:25:28;6.80;;;4.73;;
56517;SDS011;42419;48.760;2.322;2023-02-01T15:27:55;8.80;;;4.70;;
56517;SDS011;42419;48.760;2.322;2023-02-01T15:30:23;8.03;;;4.20;;
56517;SDS011;42419;48.760;2.322;2023-02-01T15:32:51;10.47;;;4.40;;
56517;SDS011;42419;48.760;2.322;2023-02-01T15:35:32;7.37;;;4.50;;
56517;SDS011;42419;48.760;2.322;2023-02-01T15:40:59;8.17;;;4.27;;
56517;SDS011;42419;48.760;2.322;2023-02-01T15:43:25;8.27;;;4.30;;
56517;SDS011;42419;48.760;2.322;2023-02-01T15:45:52;7.70;;;4.27;;
56517;SDS011;42419;48.760;2.322;2023-02-01T15:48:22;7.33;;;4.50;;
56517;SDS011;42419;48.760;2.322;2023-02-01T15:50:51;7.23;;;4.30;;
56517;SDS011;42419;48.760;2.322;2023-02-01T15:53:22;6.40;;;3.97;;
56517;SDS011;42419;48.760;2.322;2023-02-01T15:55:55;7.60;;;4.13;;
56517;SDS011;42419;48.760;2.322;2023-02-01T15:58:24;6.13;;;3.67;;
56517;SDS011;42419;48.760;2.322;2023-02-01T16:00:52;6.50;;;3.90;;
56517;SDS011;42419;48.760;2.322;2023-02-01T16:06:28;8.17;;;4.10;;
56517;SDS011;42419;48.760;2.322;2023-02-01T16:11:39;4.47;;;3.40;;
56517;SDS011;42419;48.760;2.322;2023-02-01T16:14:14;6.17;;;3.57;;
56517;SDS011;42419;48.760;2.322;2023-02-01T16:16:40;5.70;;;3.57;;
56517;SDS011;42419;48.760;2.322;2023-02-01T16:19:05;4.97;;;3.73;;
56517;SDS011;42419;48.760;2.322;2023-02-01T16:21:31;5.87;;;3.67;;
56517;SDS011;42419;48.760;2.322;2023-02-01T16:23:56;6.53;;;4.10;;
56517;SDS011;42419;48.760;2.322;2023-02-01T16:26:21;5.93;;;3.90;;
56517;SDS011;42419;48.760;2.322;2023-02-01T16:28:47;7.47;;;3.60;;
56517;SDS011;42419;48.760;2.322;2023-02-01T16:31:14;6.13;;;3.93;;
56517;SDS011;42419;48.760;2.322;2023-02-01T16:33:48;6.90;;;3.70;;
56517;SDS011;42419;48.760;2.322;2023-02-01T16:36:15;5.90;;;3.90;;
56517;SDS011;42419;48.760;2.322;2023-02-01T16:38:41;5.13;;;3.40;;
56517;SDS011;42419;48.760;2.322;2023-02-01T16:41:06;7.17;;;3.97;;
56517;SDS011;42419;48.760;2.322;2023-02-01T16:43:37;6.87;;;3.70;;
56517;SDS011;42419;48.760;2.322;2023-02-01T16:46:03;6.80;;;3.97;;
56517;SDS011;42419;48.760;2.322;2023-02-01T16:48:29;5.50;;;3.03;;
56517;SDS011;42419;48.760;2.322;2023-02-01T16:50:58;5.27;;;3.30;;
56517;SDS011;42419;48.760;2.322;2023-02-01T16:53:26;5.97;;;3.07;;
56517;SDS011;42419;48.760;2.322;2023-02-01T16:55:54;5.63;;;3.17;;
56517;SDS011;42419;48.760;2.322;2023-02-01T16:58:22;7.30;;;3.40;;
56517;SDS011;42419;48.760;2.322;2023-02-01T17:00:48;7.07;;;3.43;;
56517;SDS011;42419;48.760;2.322;2023-02-01T17:03:14;6.37;;;3.20;;
56517;SDS011;42419;48.760;2.322;2023-02-01T17:05:44;4.60;;;3.23;;
56517;SDS011;42419;48.760;2.322;2023-02-01T17:08:13;6.23;;;3.93;;
56517;SDS011;42419;48.760;2.322;2023-02-01T17:10:44;3.97;;;2.70;;
56517;SDS011;42419;48.760;2.322;2023-02-01T17:13:13;4.50;;;3.30;;
56517;SDS011;42419;48.760;2.322;2023-02-01T17:15:41;5.20;;;2.83;;
56517;SDS011;42419;48.760;2.322;2023-02-01T17:18:14;5.47;;;2.93;;
56517;SDS011;42419;48.760;2.322;2023-02-01T17:20:41;5.30;;;3.00;;
56517;SDS011;42419;48.760;2.322;2023-02-01T17:23:07;5.50;;;3.60;;
56517;SDS011;42419;48.760;2.322;2023-02-01T17:25:32;4.30;;;2.80;;
56517;SDS011;42419;48.760;2.322;2023-02-01T17:27:58;5.03;;;3.47;;
56517;SDS011;42419;48.760;2.322;2023-02-01T17:30:23;6.60;;;2.70;;
56517;SDS011;42419;48.760;2.322;2023-02-01T17:32:49;6.63;;;3.63;;
56517;SDS011;42419;48.760;2.322;2023-02-01T17:35:19;5.30;;;3.70;;
56517;SDS011;42419;48.760;2.322;2023-02-01T17:37:46;5.30;;;3.30;;
56517;SDS011;42419;48.760;2.322;2023-02-01T17:40:12;7.50;;;3.67;;
56517;SDS011;42419;48.760;2.322;2023-02-01T17:42:37;4.40;;;2.77;;
56517;SDS011;42419;48.760;2.322;2023-02-01T17:47:47;4.83;;;2.90;;
56517;SDS011;42419;48.760;2.322;2023-02-01T17:50:13;4.80;;;2.80;;
56517;SDS011;42419;48.760;2.322;2023-02-01T17:52:38;4.80;;;2.90;;
56517;SDS011;42419;48.760;2.322;2023-02-01T17:55:13;6.27;;;3.07;;
56517;SDS011;42419;48.760;2.322;2023-02-01T17:57:48;5.20;;;3.13;;
56517;SDS011;42419;48.760;2.322;2023-02-01T18:00:15;6.87;;;3.00;;
56517;SDS011;42419;48.760;2.322;2023-02-01T18:02:41;7.93;;;3.57;;
56517;SDS011;42419;48.760;2.322;2023-02-01T18:05:20;4.83;;;2.57;;
56517;SDS011;42419;48.760;2.322;2023-02-01T18:07:50;5.03;;;3.23;;
56517;SDS011;42419;48.760;2.322;2023-02-01T18:10:15;4.33;;;3.00;;